sensor_id;sensor_type;location;lat;lon;timestamp;P1;durP1;ratioP1;P2;durP2;ratioP2
4434;SDS011;46552;52.150;8.428;2022-11-30T00:00:52;57.60;;;23.00;;
4434;SDS011;46552;52.150;8.428;2022-11-30T00:03:20;46.23;;;21.43;;
4434;SDS011;46552;52.150;8.428;2022-11-30T00:05:48;48.87;;;22.10;;
4434;SDS011;46552;52.150;8.428;2022-11-30T00:08:16;54.73;;;23.50;;
4434;SDS011;46552;52.150;8.428;2022-11-30T00:10:44;52.67;;;23.93;;
4434;SDS011;46552;52.150;8.428;2022-11-30T00:13:10;53.23;;;23.83;;
4434;SDS011;46552;52.150;8.428;2022-11-30T00:15:37;60.97;;;26.00;;
4434;SDS011;46552;52.150;8.428;2022-11-30T00:18:06;59.30;;;25.77;;
4434;SDS011;46552;52.150;8.428;2022-11-30T00:20:33;54.13;;;23.73;;
4434;SDS011;46552;52.150;8.428;2022-11-30T00:23:01;56.00;;;24.93;;
4434;SDS011;46552;52.150;8.428;2022-11-30T00:25:29;53.17;;;25.40;;
4434;SDS011;46552;52.150;8.428;2022-11-30T00:27:58;56.83;;;25.37;;
4434;SDS011;46552;52.150;8.428;2022-11-30T00:30:26;52.83;;;22.07;;
4434;SDS011;46552;52.150;8.428;2022-11-30T00:32:55;51.80;;;22.80;;
4434;SDS011;46552;52.150;8.428;2022-11-30T00:35:23;65.20;;;26.27;;
4434;SDS011;46552;52.150;8.428;2022-11-30T00:37:50;56.80;;;24.93;;
4434;SDS011;46552;52.150;8.428;2022-11-30T00:40:17;57.37;;;26.27;;
4434;SDS011;46552;52.150;8.428;2022-11-30T00:42:46;59.13;;;22.57;;
4434;SDS011;46552;52.150;8.428;2022-11-30T00:45:13;50.13;;;22.93;;
4434;SDS011;46552;52.150;8.428;2022-11-30T00:47:41;51.37;;;22.17;;
4434;SDS011;46552;52.150;8.428;2022-11-30T00:50:09;56.93;;;24.70;;
4434;SDS011;46552;52.150;8.428;2022-11-30T00:52:37;61.37;;;26.17;;
4434;SDS011;46552;52.150;8.428;2022-11-30T00:55:04;55.93;;;24.70;;
4434;SDS011;46552;52.150;8.428;2022-11-30T00:57:32;52.53;;;24.47;;
4434;SDS011;46552;52.150;8.428;2022-11-30T01:00:01;61.20;;;24.97;;
4434;SDS011;46552;52.150;8.428;2022-11-30T01:02:30;55.17;;;25.00;;
4434;SDS011;46552;52.150;8.428;2022-11-30T01:04:57;62.97;;;25.90;;
4434;SDS011;46552;52.150;8.428;2022-11-30T01:07:23;61.03;;;26.10;;
4434;SDS011;46552;52.150;8.428;2022-11-30T01:09:50;63.27;;;26.30;;
4434;SDS011;46552;52.150;8.428;2022-11-30T01:12:17;60.00;;;24.37;;
4434;SDS011;46552;52.150;8.428;2022-11-30T01:14:45;56.70;;;24.90;;
4434;SDS011;46552;52.150;8.428;2022-11-30T01:17:14;67.30;;;26.03;;
4434;SDS011;46552;52.150;8.428;2022-11-30T01:19:41;61.73;;;26.50;;
4434;SDS011;46552;52.150;8.428;2022-11-30T01:22:08;57.40;;;25.40;;
4434;SDS011;46552;52.150;8.428;2022-11-30T01:24:35;59.07;;;23.87;;
4434;SDS011;46552;52.150;8.428;2022-11-30T01:27:03;58.03;;;25.63;;
4434;SDS011;46552;52.150;8.428;2022-11-30T01:29:30;60.90;;;25.23;;
4434;SDS011;46552;52.150;8.428;2022-11-30T01:31:57;52.90;;;24.10;;
4434;SDS011;46552;52.150;8.428;2022-11-30T01:34:27;53.27;;;24.80;;
4434;SDS011;46552;52.150;8.428;2022-11-30T01:36:54;55.97;;;24.93;;
4434;SDS011;46552;52.150;8.428;2022-11-30T01:39:21;70.47;;;26.43;;
4434;SDS011;46552;52.150;8.428;2022-11-30T01:41:49;65.07;;;24.43;;
4434;SDS011;46552;52.150;8.428;2022-11-30T01:47:19;49.40;;;23.13;;
4434;SDS011;46552;52.150;8.428;2022-11-30T01:49:54;67.57;;;25.47;;
4434;SDS011;46552;52.150;8.428;2022-11-30T01:52:30;62.27;;;26.00;;
4434;SDS011;46552;52.150;8.428;2022-11-30T01:55:04;50.00;;;23.07;;
4434;SDS011;46552;52.150;8.428;2022-11-30T01:57:38;56.53;;;23.60;;
4434;SDS011;46552;52.150;8.428;2022-11-30T02:00:11;56.67;;;24.40;;
4434;SDS011;46552;52.150;8.428;2022-11-30T02:02:42;55.47;;;22.60;;
4434;SDS011;46552;52.150;8.428;2022-11-30T02:05:14;56.37;;;25.17;;
4434;SDS011;46552;52.150;8.428;2022-11-30T02:07:43;51.17;;;22.67;;
4434;SDS011;46552;52.150;8.428;2022-11-30T02:10:14;54.07;;;22.23;;
4434;SDS011;46552;52.150;8.428;2022-11-30T02:12:45;54.63;;;23.33;;
4434;SDS011;46552;52.150;8.428;2022-11-30T02:15:43;47.80;;;21.13;;
4434;SDS011;46552;52.150;8.428;2022-11-30T02:18:21;48.10;;;21.20;;
4434;SDS011;46552;52.150;8.428;2022-11-30T02:20:56;48.80;;;22.03;;
4434;SDS011;46552;52.150;8.428;2022-11-30T02:23:41;53.17;;;21.57;;
4434;SDS011;46552;52.150;8.428;2022-11-30T02:29:25;54.57;;;23.93;;
4434;SDS011;46552;52.150;8.428;2022-11-30T02:31:56;44.07;;;21.47;;
4434;SDS011;46552;52.150;8.428;2022-11-30T02:34:30;59.53;;;21.00;;
4434;SDS011;46552;52.150;8.428;2022-11-30T02:37:00;41.23;;;19.50;;
4434;SDS011;46552;52.150;8.428;2022-11-30T02:39:30;54.87;;;24.60;;
4434;SDS011;46552;52.150;8.428;2022-11-30T02:41:58;52.77;;;22.37;;
4434;SDS011;46552;52.150;8.428;2022-11-30T02:44:28;44.83;;;20.23;;
4434;SDS011;46552;52.150;8.428;2022-11-30T02:46:59;43.40;;;20.20;;
4434;SDS011;46552;52.150;8.428;2022-11-30T02:49:38;46.47;;;20.77;;
4434;SDS011;46552;52.150;8.428;2022-11-30T02:52:10;46.77;;;20.47;;
4434;SDS011;46552;52.150;8.428;2022-11-30T02:54:38;38.83;;;19.50;;
4434;SDS011;46552;52.150;8.428;2022-11-30T02:57:05;39.13;;;18.87;;
4434;SDS011;46552;52.150;8.428;2022-11-30T02:59:35;38.13;;;18.10;;
4434;SDS011;46552;52.150;8.428;2022-11-30T03:02:03;45.70;;;16.87;;
4434;SDS011;46552;52.150;8.428;2022-11-30T03:04:30;36.90;;;18.63;;
4434;SDS011;46552;52.150;8.428;2022-11-30T03:06:57;39.87;;;16.53;;
4434;SDS011;46552;52.150;8.428;2022-11-30T03:09:25;46.43;;;16.77;;
4434;SDS011;46552;52.150;8.428;2022-11-30T03:11:53;37.93;;;15.63;;
4434;SDS011;46552;52.150;8.428;2022-11-30T03:14:21;35.37;;;13.77;;
4434;SDS011;46552;52.150;8.428;2022-11-30T03:16:51;32.67;;;12.90;;
4434;SDS011;46552;52.150;8.428;2022-11-30T03:19:18;30.40;;;13.30;;
4434;SDS011;46552;52.150;8.428;2022-11-30T03:21:45;30.73;;;13.50;;
4434;SDS011;46552;52.150;8.428;2022-11-30T03:24:12;24.70;;;12.53;;
4434;SDS011;46552;52.150;8.428;2022-11-30T03:26:39;23.97;;;12.30;;
4434;SDS011;46552;52.150;8.428;2022-11-30T03:29:06;28.67;;;13.40;;
4434;SDS011;46552;52.150;8.428;2022-11-30T03:31:33;25.73;;;11.60;;
4434;SDS011;46552;52.150;8.428;2022-11-30T03:34:02;23.53;;;11.83;;
4434;SDS011;46552;52.150;8.428;2022-11-30T03:36:29;21.90;;;11.97;;
4434;SDS011;46552;52.150;8.428;2022-11-30T03:38:56;35.53;;;14.87;;
4434;SDS011;46552;52.150;8.428;2022-11-30T03:41:24;34.50;;;13.47;;
4434;SDS011;46552;52.150;8.428;2022-11-30T03:43:51;25.60;;;12.40;;
4434;SDS011;46552;52.150;8.428;2022-11-30T03:46:18;28.60;;;11.93;;
4434;SDS011;46552;52.150;8.428;2022-11-30T03:48:46;33.83;;;12.13;;
4434;SDS011;46552;52.150;8.428;2022-11-30T03:51:16;23.27;;;9.63;;
4434;SDS011;46552;52.150;8.428;2022-11-30T03:53:43;22.30;;;10.73;;
4434;SDS011;46552;52.150;8.428;2022-11-30T03:56:11;21.33;;;10.37;;
4434;SDS011;46552;52.150;8.428;2022-11-30T03:58:39;20.10;;;10.70;;
4434;SDS011;46552;52.150;8.428;2022-11-30T04:01:08;28.53;;;11.00;;
4434;SDS011;46552;52.150;8.428;2022-11-30T04:03:37;29.33;;;12.30;;
4434;SDS011;46552;52.150;8.428;2022-11-30T04:06:06;21.50;;;11.27;;
4434;SDS011;46552;52.150;8.428;2022-11-30T04:08:35;32.53;;;14.63;;
4434;SDS011;46552;52.150;8.428;2022-11-30T04:11:03;23.93;;;11.97;;
4434;SDS011;46552;52.150;8.428;2022-11-30T04:13:31;22.07;;;9.90;;
4434;SDS011;46552;52.150;8.428;2022-11-30T04:15:59;16.03;;;9.33;;
4434;SDS011;46552;52.150;8.428;2022-11-30T04:18:27;23.30;;;10.80;;
4434;SDS011;46552;52.150;8.428;2022-11-30T04:20:56;19.90;;;10.60;;
4434;SDS011;46552;52.150;8.428;2022-11-30T04:23:24;23.60;;;9.67;;
4434;SDS011;46552;52.150;8.428;2022-11-30T04:25:56;20.40;;;10.37;;
4434;SDS011;46552;52.150;8.428;2022-11-30T04:28:24;20.43;;;10.03;;
4434;SDS011;46552;52.150;8.428;2022-11-30T04:30:51;23.77;;;10.43;;
4434;SDS011;46552;52.150;8.428;2022-11-30T04:33:19;19.13;;;10.20;;
4434;SDS011;46552;52.150;8.428;2022-11-30T04:35:47;19.07;;;8.73;;
4434;SDS011;46552;52.150;8.428;2022-11-30T04:38:17;34.20;;;13.03;;
4434;SDS011;46552;52.150;8.428;2022-11-30T04:40:45;23.70;;;10.30;;
4434;SDS011;46552;52.150;8.428;2022-11-30T04:43:14;20.70;;;10.43;;
4434;SDS011;46552;52.150;8.428;2022-11-30T04:45:41;15.90;;;8.70;;
4434;SDS011;46552;52.150;8.428;2022-11-30T04:48:09;16.60;;;7.67;;
4434;SDS011;46552;52.150;8.428;2022-11-30T04:50:36;27.03;;;9.37;;
4434;SDS011;46552;52.150;8.428;2022-11-30T04:53:03;17.63;;;8.20;;
4434;SDS011;46552;52.150;8.428;2022-11-30T04:55:31;13.03;;;7.40;;
4434;SDS011;46552;52.150;8.428;2022-11-30T04:57:59;12.60;;;7.33;;
4434;SDS011;46552;52.150;8.428;2022-11-30T05:00:28;14.03;;;7.53;;
4434;SDS011;46552;52.150;8.428;2022-11-30T05:02:55;16.17;;;7.93;;
4434;SDS011;46552;52.150;8.428;2022-11-30T05:05:22;13.33;;;7.73;;
4434;SDS011;46552;52.150;8.428;2022-11-30T05:07:50;12.33;;;7.00;;
4434;SDS011;46552;52.150;8.428;2022-11-30T05:10:21;21.93;;;7.80;;
4434;SDS011;46552;52.150;8.428;2022-11-30T05:12:48;14.30;;;8.27;;
4434;SDS011;46552;52.150;8.428;2022-11-30T05:15:16;13.40;;;7.80;;
4434;SDS011;46552;52.150;8.428;2022-11-30T05:17:44;12.97;;;7.13;;
4434;SDS011;46552;52.150;8.428;2022-11-30T05:20:12;14.30;;;7.27;;
4434;SDS011;46552;52.150;8.428;2022-11-30T05:22:40;8.90;;;5.50;;
4434;SDS011;46552;52.150;8.428;2022-11-30T05:25:07;12.07;;;7.50;;
4434;SDS011;46552;52.150;8.428;2022-11-30T05:27:35;9.77;;;5.70;;
4434;SDS011;46552;52.150;8.428;2022-11-30T05:30:03;10.17;;;6.60;;
4434;SDS011;46552;52.150;8.428;2022-11-30T05:32:32;13.57;;;7.47;;
4434;SDS011;46552;52.150;8.428;2022-11-30T05:35:02;12.00;;;7.73;;
4434;SDS011;46552;52.150;8.428;2022-11-30T05:37:30;13.63;;;6.60;;
4434;SDS011;46552;52.150;8.428;2022-11-30T05:39:57;16.77;;;7.67;;
4434;SDS011;46552;52.150;8.428;2022-11-30T05:42:24;8.97;;;5.83;;
4434;SDS011;46552;52.150;8.428;2022-11-30T05:44:52;12.90;;;7.40;;
4434;SDS011;46552;52.150;8.428;2022-11-30T05:47:19;10.17;;;6.43;;
4434;SDS011;46552;52.150;8.428;2022-11-30T05:49:46;16.20;;;6.60;;
4434;SDS011;46552;52.150;8.428;2022-11-30T05:52:15;10.20;;;6.70;;
4434;SDS011;46552;52.150;8.428;2022-11-30T05:54:42;10.83;;;6.20;;
4434;SDS011;46552;52.150;8.428;2022-11-30T05:57:09;11.90;;;6.50;;
4434;SDS011;46552;52.150;8.428;2022-11-30T05:59:36;9.80;;;6.33;;
4434;SDS011;46552;52.150;8.428;2022-11-30T06:02:03;11.73;;;6.00;;
4434;SDS011;46552;52.150;8.428;2022-11-30T06:04:31;11.10;;;6.10;;
4434;SDS011;46552;52.150;8.428;2022-11-30T06:06:58;9.63;;;6.87;;
4434;SDS011;46552;52.150;8.428;2022-11-30T06:09:27;12.47;;;7.40;;
4434;SDS011;46552;52.150;8.428;2022-11-30T06:11:55;10.97;;;6.90;;
4434;SDS011;46552;52.150;8.428;2022-11-30T06:14:22;11.33;;;7.23;;
4434;SDS011;46552;52.150;8.428;2022-11-30T06:16:49;12.97;;;5.90;;
4434;SDS011;46552;52.150;8.428;2022-11-30T06:19:16;9.70;;;6.40;;
4434;SDS011;46552;52.150;8.428;2022-11-30T06:21:43;11.80;;;6.47;;
4434;SDS011;46552;52.150;8.428;2022-11-30T06:24:11;14.13;;;7.60;;
4434;SDS011;46552;52.150;8.428;2022-11-30T06:26:40;10.73;;;6.80;;
4434;SDS011;46552;52.150;8.428;2022-11-30T06:29:07;18.77;;;7.43;;
4434;SDS011;46552;52.150;8.428;2022-11-30T06:31:35;13.70;;;6.93;;
4434;SDS011;46552;52.150;8.428;2022-11-30T06:34:02;12.57;;;7.90;;
4434;SDS011;46552;52.150;8.428;2022-11-30T06:36:29;14.43;;;7.73;;
4434;SDS011;46552;52.150;8.428;2022-11-30T06:38:57;13.50;;;8.57;;
4434;SDS011;46552;52.150;8.428;2022-11-30T06:41:25;13.20;;;8.30;;
4434;SDS011;46552;52.150;8.428;2022-11-30T06:43:54;19.43;;;8.00;;
4434;SDS011;46552;52.150;8.428;2022-11-30T06:46:21;10.90;;;7.70;;
4434;SDS011;46552;52.150;8.428;2022-11-30T06:48:50;13.80;;;7.47;;
4434;SDS011;46552;52.150;8.428;2022-11-30T06:51:17;15.63;;;9.23;;
4434;SDS011;46552;52.150;8.428;2022-11-30T06:53:44;17.57;;;9.57;;
4434;SDS011;46552;52.150;8.428;2022-11-30T06:56:12;18.90;;;9.00;;
4434;SDS011;46552;52.150;8.428;2022-11-30T06:58:39;12.80;;;7.80;;
4434;SDS011;46552;52.150;8.428;2022-11-30T07:01:12;17.07;;;8.37;;
4434;SDS011;46552;52.150;8.428;2022-11-30T07:03:40;16.43;;;9.27;;
4434;SDS011;46552;52.150;8.428;2022-11-30T07:06:08;17.93;;;9.63;;
4434;SDS011;46552;52.150;8.428;2022-11-30T07:08:37;19.83;;;9.70;;
4434;SDS011;46552;52.150;8.428;2022-11-30T07:11:06;14.70;;;9.60;;
4434;SDS011;46552;52.150;8.428;2022-11-30T07:13:34;16.70;;;9.03;;
4434;SDS011;46552;52.150;8.428;2022-11-30T07:16:02;15.90;;;9.40;;
4434;SDS011;46552;52.150;8.428;2022-11-30T07:18:31;14.33;;;8.47;;
4434;SDS011;46552;52.150;8.428;2022-11-30T07:20:59;15.43;;;8.80;;
4434;SDS011;46552;52.150;8.428;2022-11-30T07:23:27;22.47;;;8.13;;
4434;SDS011;46552;52.150;8.428;2022-11-30T07:26:12;11.80;;;7.67;;
4434;SDS011;46552;52.150;8.428;2022-11-30T07:28:40;19.37;;;9.27;;
4434;SDS011;46552;52.150;8.428;2022-11-30T07:31:15;14.53;;;9.03;;
4434;SDS011;46552;52.150;8.428;2022-11-30T07:33:46;18.10;;;9.40;;
4434;SDS011;46552;52.150;8.428;2022-11-30T07:36:14;16.10;;;8.60;;
4434;SDS011;46552;52.150;8.428;2022-11-30T07:38:42;16.77;;;9.27;;
4434;SDS011;46552;52.150;8.428;2022-11-30T07:41:10;14.60;;;9.07;;
4434;SDS011;46552;52.150;8.428;2022-11-30T07:43:38;13.70;;;8.97;;
4434;SDS011;46552;52.150;8.428;2022-11-30T07:46:06;18.47;;;10.10;;
4434;SDS011;46552;52.150;8.428;2022-11-30T07:48:34;16.70;;;10.23;;
4434;SDS011;46552;52.150;8.428;2022-11-30T07:51:04;17.40;;;11.00;;
4434;SDS011;46552;52.150;8.428;2022-11-30T07:53:32;12.53;;;8.93;;
4434;SDS011;46552;52.150;8.428;2022-11-30T07:56:00;15.93;;;10.40;;
4434;SDS011;46552;52.150;8.428;2022-11-30T07:58:28;15.07;;;10.33;;
4434;SDS011;46552;52.150;8.428;2022-11-30T08:00:59;19.03;;;10.43;;
4434;SDS011;46552;52.150;8.428;2022-11-30T08:03:28;20.83;;;10.37;;
4434;SDS011;46552;52.150;8.428;2022-11-30T08:05:59;24.80;;;14.00;;
4434;SDS011;46552;52.150;8.428;2022-11-30T08:08:30;29.83;;;17.50;;
4434;SDS011;46552;52.150;8.428;2022-11-30T08:10:58;26.37;;;15.43;;
4434;SDS011;46552;52.150;8.428;2022-11-30T08:13:26;36.43;;;18.93;;
4434;SDS011;46552;52.150;8.428;2022-11-30T08:15:53;29.53;;;17.90;;
4434;SDS011;46552;52.150;8.428;2022-11-30T08:18:21;32.37;;;18.57;;
4434;SDS011;46552;52.150;8.428;2022-11-30T08:20:54;30.80;;;17.30;;
4434;SDS011;46552;52.150;8.428;2022-11-30T08:23:24;36.33;;;19.47;;
4434;SDS011;46552;52.150;8.428;2022-11-30T08:25:54;36.23;;;20.30;;
4434;SDS011;46552;52.150;8.428;2022-11-30T08:28:22;31.90;;;19.33;;
4434;SDS011;46552;52.150;8.428;2022-11-30T08:30:49;37.30;;;20.13;;
4434;SDS011;46552;52.150;8.428;2022-11-30T08:33:17;28.50;;;15.33;;
4434;SDS011;46552;52.150;8.428;2022-11-30T08:35:44;30.60;;;15.97;;
4434;SDS011;46552;52.150;8.428;2022-11-30T08:38:11;32.20;;;16.20;;
4434;SDS011;46552;52.150;8.428;2022-11-30T08:40:39;26.30;;;14.80;;
4434;SDS011;46552;52.150;8.428;2022-11-30T08:43:08;28.70;;;15.30;;
4434;SDS011;46552;52.150;8.428;2022-11-30T08:45:35;27.40;;;14.30;;
4434;SDS011;46552;52.150;8.428;2022-11-30T08:48:03;30.67;;;14.80;;
4434;SDS011;46552;52.150;8.428;2022-11-30T08:50:31;33.07;;;15.97;;
4434;SDS011;46552;52.150;8.428;2022-11-30T08:52:58;28.13;;;14.47;;
4434;SDS011;46552;52.150;8.428;2022-11-30T08:55:25;29.47;;;14.13;;
4434;SDS011;46552;52.150;8.428;2022-11-30T08:57:52;25.53;;;14.23;;
4434;SDS011;46552;52.150;8.428;2022-11-30T09:00:22;37.23;;;16.23;;
4434;SDS011;46552;52.150;8.428;2022-11-30T09:02:49;26.87;;;16.57;;
4434;SDS011;46552;52.150;8.428;2022-11-30T09:05:17;25.20;;;14.53;;
4434;SDS011;46552;52.150;8.428;2022-11-30T09:07:44;22.57;;;13.87;;
4434;SDS011;46552;52.150;8.428;2022-11-30T09:10:12;24.47;;;15.07;;
4434;SDS011;46552;52.150;8.428;2022-11-30T09:12:40;30.03;;;16.30;;
4434;SDS011;46552;52.150;8.428;2022-11-30T09:15:08;29.57;;;16.60;;
4434;SDS011;46552;52.150;8.428;2022-11-30T09:17:37;25.17;;;13.93;;
4434;SDS011;46552;52.150;8.428;2022-11-30T09:20:05;30.97;;;15.90;;
4434;SDS011;46552;52.150;8.428;2022-11-30T09:22:33;22.20;;;15.57;;
4434;SDS011;46552;52.150;8.428;2022-11-30T09:25:00;26.20;;;14.93;;
4434;SDS011;46552;52.150;8.428;2022-11-30T09:27:30;23.57;;;13.90;;
4434;SDS011;46552;52.150;8.428;2022-11-30T09:29:57;27.70;;;15.43;;
4434;SDS011;46552;52.150;8.428;2022-11-30T09:32:25;26.03;;;15.73;;
4434;SDS011;46552;52.150;8.428;2022-11-30T09:34:54;31.63;;;15.70;;
4434;SDS011;46552;52.150;8.428;2022-11-30T09:37:21;28.30;;;17.80;;
4434;SDS011;46552;52.150;8.428;2022-11-30T09:39:48;29.10;;;16.57;;
4434;SDS011;46552;52.150;8.428;2022-11-30T09:42:25;30.63;;;17.13;;
4434;SDS011;46552;52.150;8.428;2022-11-30T09:45:11;26.97;;;16.13;;
4434;SDS011;46552;52.150;8.428;2022-11-30T09:47:45;30.93;;;17.23;;
4434;SDS011;46552;52.150;8.428;2022-11-30T09:50:32;30.40;;;15.00;;
4434;SDS011;46552;52.150;8.428;2022-11-30T09:53:05;26.13;;;15.17;;
4434;SDS011;46552;52.150;8.428;2022-11-30T09:55:39;27.53;;;15.40;;
4434;SDS011;46552;52.150;8.428;2022-11-30T09:58:09;28.93;;;16.90;;
4434;SDS011;46552;52.150;8.428;2022-11-30T10:00:47;29.90;;;17.37;;
4434;SDS011;46552;52.150;8.428;2022-11-30T10:03:14;28.53;;;17.37;;
4434;SDS011;46552;52.150;8.428;2022-11-30T10:05:48;33.43;;;17.80;;
4434;SDS011;46552;52.150;8.428;2022-11-30T10:08:25;29.10;;;15.13;;
4434;SDS011;46552;52.150;8.428;2022-11-30T10:11:09;30.07;;;15.73;;
4434;SDS011;46552;52.150;8.428;2022-11-30T10:13:47;30.23;;;15.20;;
4434;SDS011;46552;52.150;8.428;2022-11-30T10:16:28;27.00;;;15.70;;
4434;SDS011;46552;52.150;8.428;2022-11-30T10:19:05;23.63;;;15.53;;
4434;SDS011;46552;52.150;8.428;2022-11-30T10:21:46;30.47;;;16.17;;
4434;SDS011;46552;52.150;8.428;2022-11-30T10:24:27;24.23;;;15.23;;
4434;SDS011;46552;52.150;8.428;2022-11-30T10:27:03;32.20;;;16.33;;
4434;SDS011;46552;52.150;8.428;2022-11-30T10:29:38;27.03;;;16.03;;
4434;SDS011;46552;52.150;8.428;2022-11-30T10:32:09;29.00;;;15.93;;
4434;SDS011;46552;52.150;8.428;2022-11-30T10:34:43;26.50;;;14.77;;
4434;SDS011;46552;52.150;8.428;2022-11-30T10:37:17;31.03;;;17.77;;
4434;SDS011;46552;52.150;8.428;2022-11-30T10:39:51;26.67;;;15.23;;
4434;SDS011;46552;52.150;8.428;2022-11-30T10:42:25;32.17;;;15.83;;
4434;SDS011;46552;52.150;8.428;2022-11-30T10:44:58;28.17;;;16.20;;
4434;SDS011;46552;52.150;8.428;2022-11-30T10:47:29;30.20;;;16.33;;
4434;SDS011;46552;52.150;8.428;2022-11-30T10:50:01;29.67;;;17.80;;
4434;SDS011;46552;52.150;8.428;2022-11-30T10:52:34;25.80;;;16.73;;
4434;SDS011;46552;52.150;8.428;2022-11-30T10:55:10;26.93;;;16.20;;
4434;SDS011;46552;52.150;8.428;2022-11-30T10:57:39;30.03;;;16.80;;
4434;SDS011;46552;52.150;8.428;2022-11-30T11:00:10;30.90;;;16.77;;
4434;SDS011;46552;52.150;8.428;2022-11-30T11:02:40;31.63;;;18.57;;
4434;SDS011;46552;52.150;8.428;2022-11-30T11:05:19;33.23;;;19.07;;
4434;SDS011;46552;52.150;8.428;2022-11-30T11:07:58;34.17;;;19.37;;
4434;SDS011;46552;52.150;8.428;2022-11-30T11:10:29;32.23;;;19.37;;
4434;SDS011;46552;52.150;8.428;2022-11-30T11:12:58;33.27;;;18.80;;
4434;SDS011;46552;52.150;8.428;2022-11-30T11:15:26;30.57;;;17.97;;
4434;SDS011;46552;52.150;8.428;2022-11-30T11:20:47;31.53;;;17.13;;
4434;SDS011;46552;52.150;8.428;2022-11-30T11:23:28;30.73;;;17.20;;
4434;SDS011;46552;52.150;8.428;2022-11-30T11:25:59;39.23;;;20.83;;
4434;SDS011;46552;52.150;8.428;2022-11-30T11:28:27;34.93;;;19.67;;
4434;SDS011;46552;52.150;8.428;2022-11-30T11:30:55;32.50;;;17.53;;
4434;SDS011;46552;52.150;8.428;2022-11-30T11:33:24;33.03;;;18.73;;
4434;SDS011;46552;52.150;8.428;2022-11-30T11:35:54;31.37;;;19.00;;
4434;SDS011;46552;52.150;8.428;2022-11-30T11:38:42;35.07;;;18.80;;
4434;SDS011;46552;52.150;8.428;2022-11-30T11:41:12;40.47;;;19.67;;
4434;SDS011;46552;52.150;8.428;2022-11-30T11:43:54;38.97;;;20.30;;
4434;SDS011;46552;52.150;8.428;2022-11-30T11:46:28;41.00;;;18.10;;
4434;SDS011;46552;52.150;8.428;2022-11-30T11:48:57;35.83;;;19.83;;
4434;SDS011;46552;52.150;8.428;2022-11-30T11:51:30;41.80;;;19.57;;
4434;SDS011;46552;52.150;8.428;2022-11-30T11:54:01;44.93;;;21.60;;
4434;SDS011;46552;52.150;8.428;2022-11-30T11:56:41;49.57;;;23.73;;
4434;SDS011;46552;52.150;8.428;2022-11-30T11:59:11;57.63;;;24.70;;
4434;SDS011;46552;52.150;8.428;2022-11-30T12:01:51;56.57;;;25.73;;
4434;SDS011;46552;52.150;8.428;2022-11-30T12:04:31;50.77;;;26.83;;
4434;SDS011;46552;52.150;8.428;2022-11-30T12:07:09;50.93;;;23.37;;
4434;SDS011;46552;52.150;8.428;2022-11-30T12:09:46;52.60;;;26.20;;
4434;SDS011;46552;52.150;8.428;2022-11-30T12:12:33;47.57;;;23.33;;
4434;SDS011;46552;52.150;8.428;2022-11-30T12:15:00;47.97;;;25.77;;
4434;SDS011;46552;52.150;8.428;2022-11-30T12:17:38;57.10;;;25.87;;
4434;SDS011;46552;52.150;8.428;2022-11-30T12:20:16;54.53;;;23.97;;
4434;SDS011;46552;52.150;8.428;2022-11-30T12:22:58;49.07;;;24.17;;
4434;SDS011;46552;52.150;8.428;2022-11-30T12:25:44;57.37;;;26.67;;
4434;SDS011;46552;52.150;8.428;2022-11-30T12:28:21;59.67;;;25.80;;
4434;SDS011;46552;52.150;8.428;2022-11-30T12:30:59;57.47;;;26.27;;
4434;SDS011;46552;52.150;8.428;2022-11-30T12:33:38;57.93;;;26.03;;
4434;SDS011;46552;52.150;8.428;2022-11-30T12:36:15;57.10;;;28.60;;
4434;SDS011;46552;52.150;8.428;2022-11-30T12:38:52;65.87;;;28.03;;
4434;SDS011;46552;52.150;8.428;2022-11-30T12:41:29;67.10;;;31.90;;
4434;SDS011;46552;52.150;8.428;2022-11-30T12:44:07;65.40;;;27.10;;
4434;SDS011;46552;52.150;8.428;2022-11-30T12:46:53;68.53;;;28.57;;
4434;SDS011;46552;52.150;8.428;2022-11-30T12:49:35;72.70;;;27.90;;
4434;SDS011;46552;52.150;8.428;2022-11-30T12:52:17;61.20;;;27.80;;
4434;SDS011;46552;52.150;8.428;2022-11-30T12:54:54;60.43;;;26.77;;
4434;SDS011;46552;52.150;8.428;2022-11-30T12:57:31;57.77;;;25.63;;
4434;SDS011;46552;52.150;8.428;2022-11-30T13:00:05;73.13;;;27.90;;
4434;SDS011;46552;52.150;8.428;2022-11-30T13:02:41;62.23;;;26.47;;
4434;SDS011;46552;52.150;8.428;2022-11-30T13:05:23;77.43;;;28.13;;
4434;SDS011;46552;52.150;8.428;2022-11-30T13:08:00;73.10;;;29.10;;
4434;SDS011;46552;52.150;8.428;2022-11-30T13:10:34;61.33;;;29.10;;
4434;SDS011;46552;52.150;8.428;2022-11-30T13:13:09;66.80;;;29.47;;
4434;SDS011;46552;52.150;8.428;2022-11-30T13:15:40;64.93;;;28.93;;
4434;SDS011;46552;52.150;8.428;2022-11-30T13:18:08;56.03;;;26.13;;
4434;SDS011;46552;52.150;8.428;2022-11-30T13:20:43;55.93;;;26.33;;
4434;SDS011;46552;52.150;8.428;2022-11-30T13:23:17;61.20;;;27.73;;
4434;SDS011;46552;52.150;8.428;2022-11-30T13:25:56;64.70;;;28.20;;
4434;SDS011;46552;52.150;8.428;2022-11-30T13:28:34;65.93;;;27.93;;
4434;SDS011;46552;52.150;8.428;2022-11-30T13:31:16;59.50;;;28.60;;
4434;SDS011;46552;52.150;8.428;2022-11-30T13:33:48;56.07;;;23.50;;
4434;SDS011;46552;52.150;8.428;2022-11-30T13:36:26;52.37;;;24.27;;
4434;SDS011;46552;52.150;8.428;2022-11-30T13:39:15;53.23;;;25.33;;
4434;SDS011;46552;52.150;8.428;2022-11-30T13:41:47;64.23;;;25.40;;
4434;SDS011;46552;52.150;8.428;2022-11-30T13:44:23;56.40;;;27.63;;
4434;SDS011;46552;52.150;8.428;2022-11-30T13:46:56;58.33;;;27.70;;
4434;SDS011;46552;52.150;8.428;2022-11-30T13:49:27;55.10;;;25.50;;
4434;SDS011;46552;52.150;8.428;2022-11-30T13:51:57;46.57;;;23.97;;
4434;SDS011;46552;52.150;8.428;2022-11-30T13:54:35;53.37;;;24.77;;
4434;SDS011;46552;52.150;8.428;2022-11-30T13:57:08;59.60;;;22.33;;
4434;SDS011;46552;52.150;8.428;2022-11-30T13:59:45;57.40;;;23.90;;
4434;SDS011;46552;52.150;8.428;2022-11-30T14:17:15;55.30;;;24.67;;
4434;SDS011;46552;52.150;8.428;2022-11-30T14:19:44;57.73;;;23.90;;
4434;SDS011;46552;52.150;8.428;2022-11-30T14:22:13;50.03;;;24.67;;
4434;SDS011;46552;52.150;8.428;2022-11-30T14:24:42;43.20;;;22.67;;
4434;SDS011;46552;52.150;8.428;2022-11-30T14:27:13;50.83;;;25.23;;
4434;SDS011;46552;52.150;8.428;2022-11-30T14:29:43;49.07;;;24.77;;
4434;SDS011;46552;52.150;8.428;2022-11-30T14:32:22;53.97;;;24.60;;
4434;SDS011;46552;52.150;8.428;2022-11-30T14:35:06;62.40;;;26.40;;
4434;SDS011;46552;52.150;8.428;2022-11-30T14:37:39;49.27;;;24.07;;
4434;SDS011;46552;52.150;8.428;2022-11-30T14:40:13;48.40;;;24.20;;
4434;SDS011;46552;52.150;8.428;2022-11-30T14:42:45;59.90;;;25.87;;
4434;SDS011;46552;52.150;8.428;2022-11-30T14:45:18;58.43;;;27.00;;
4434;SDS011;46552;52.150;8.428;2022-11-30T14:47:49;58.97;;;27.27;;
4434;SDS011;46552;52.150;8.428;2022-11-30T14:50:20;47.83;;;22.17;;
4434;SDS011;46552;52.150;8.428;2022-11-30T14:52:52;63.53;;;25.63;;
4434;SDS011;46552;52.150;8.428;2022-11-30T14:55:30;57.17;;;26.50;;
4434;SDS011;46552;52.150;8.428;2022-11-30T14:58:04;55.57;;;26.07;;
4434;SDS011;46552;52.150;8.428;2022-11-30T15:00:40;53.67;;;22.47;;
4434;SDS011;46552;52.150;8.428;2022-11-30T15:03:15;58.37;;;25.17;;
4434;SDS011;46552;52.150;8.428;2022-11-30T15:05:50;56.20;;;23.40;;
4434;SDS011;46552;52.150;8.428;2022-11-30T15:08:18;57.70;;;24.20;;
4434;SDS011;46552;52.150;8.428;2022-11-30T15:10:46;71.83;;;28.50;;
4434;SDS011;46552;52.150;8.428;2022-11-30T15:13:14;52.57;;;23.77;;
4434;SDS011;46552;52.150;8.428;2022-11-30T15:15:54;73.97;;;25.97;;
4434;SDS011;46552;52.150;8.428;2022-11-30T15:18:22;55.17;;;27.37;;
4434;SDS011;46552;52.150;8.428;2022-11-30T15:20:52;73.03;;;30.30;;
4434;SDS011;46552;52.150;8.428;2022-11-30T15:23:22;55.27;;;29.27;;